Time;durP1;ratioP1;P1;durP2;ratioP2;P2;SDS_P1;SDS_P2;PMS_P1;PMS_P2;Temp;Humidity;BMP_temperature;BMP_pressure;BME280_temperature;BME280_humidity;BME280_pressure;Samples;Min_cycle;Max_cycle;Signal;HPM_P1;HPM_P2
2022/08/16 00:00:46;;;;;;;;;;;17.20;99.90;;;;;;4133878;28;20390;-64
2022/08/16 00:02:49;;;;;;;;;;;17.20;99.90;;;;;;4133761;28;19957;-65
2022/08/16 00:04:51;;;;;;;;;;;17.20;99.90;;;;;;4116604;28;19925;-67
2022/08/16 00:06:53;;;;;;;;;;;17.10;99.90;;;;;;4145006;28;20365;-66
2022/08/16 00:08:55;;;;;;;;;;;17.20;99.90;;;;;;4148053;28;19926;-66
2022/08/16 00:10:57;;;;;;;;;;;17.20;99.90;;;;;;4133872;28;20028;-65
2022/08/16 00:12:59;;;;;;;;;;;17.30;99.90;;;;;;4133472;28;19932;-66
2022/08/16 00:15:05;;;;;;;;;;;17.30;99.90;;;;;;4133808;28;19932;-66
2022/08/16 00:17:07;;;;;;;;;;;17.30;99.90;;;;;;4133548;28;19921;-66
2022/08/16 00:19:24;;;;;;;;;;;17.30;99.90;;;;;;4133914;28;19980;-66
2022/08/16 00:21:29;;;;;;;;;;;17.30;99.90;;;;;;4116996;28;20428;-65
2022/08/16 00:23:31;;;;;;;;;;;17.30;99.90;;;;;;4149690;28;19922;-66
2022/08/16 00:25:35;;;;;;;;;;;17.30;99.90;;;;;;4141615;28;19921;-66
2022/08/16 00:27:57;;;;;;;;;;;17.30;99.90;;;;;;4133471;28;19929;-65
2022/08/16 00:29:59;;;;;;;;;;;17.30;99.90;;;;;;4133643;28;19922;-66
2022/08/16 00:32:10;;;;;;;;;;;17.30;99.90;;;;;;4142743;28;20380;-65
2022/08/16 00:34:12;;;;;;;;;;;17.20;99.90;;;;;;4149727;28;19929;-63
2022/08/16 00:36:19;;;;;;;;;;;17.20;99.90;;;;;;4140277;28;20008;-65
2022/08/16 00:38:21;;;;;;;;;;;17.10;99.90;;;;;;4149168;28;19986;-66
2022/08/16 00:40:44;;;;;;;;;;;17.10;99.90;;;;;;4154056;28;19925;-66
2022/08/16 00:42:54;;;;;;;;;;;17.00;99.90;;;;;;4133543;28;19940;-66
2022/08/16 00:44:59;;;;;;;;;;;17.10;99.90;;;;;;4133137;28;19984;-65
2022/08/16 00:47:04;;;;;;;;;;;17.10;99.90;;;;;;4132968;28;19941;-64
2022/08/16 00:49:08;;;;;;;;;;;17.00;99.90;;;;;;4133267;28;20382;-65
2022/08/16 00:51:19;;;;;;;;;;;17.00;99.90;;;;;;4148637;28;19957;-66
2022/08/16 00:53:22;;;;;;;;;;;17.10;99.90;;;;;;4149142;28;19983;-64
2022/08/16 00:55:24;;;;;;;;;;;17.00;99.90;;;;;;4149419;28;19925;-66
2022/08/16 00:57:26;;;;;;;;;;;16.90;99.90;;;;;;4148992;28;19925;-66
2022/08/16 00:59:48;;;;;;;;;;;16.90;99.90;;;;;;4149400;28;20162;-64
2022/08/16 01:01:55;;;;;;;;;;;16.90;99.90;;;;;;4149075;28;19947;-65
2022/08/16 01:03:58;;;;;;;;;;;16.90;99.90;;;;;;4149147;28;20020;-66
2022/08/16 01:06:01;;;;;;;;;;;16.80;99.90;;;;;;4148088;28;20013;-65
2022/08/16 01:08:24;;;;;;;;;;;16.70;99.90;;;;;;4133071;28;19921;-66
2022/08/16 01:10:36;;;;;;;;;;;16.80;99.90;;;;;;4143386;28;19975;-66
2022/08/16 01:12:38;;;;;;;;;;;16.90;99.90;;;;;;4148950;28;20020;-63
2022/08/16 01:14:44;;;;;;;;;;;16.80;99.90;;;;;;4149317;28;19921;-64
2022/08/16 01:16:48;;;;;;;;;;;16.80;99.90;;;;;;4148843;28;19932;-66
2022/08/16 01:18:53;;;;;;;;;;;16.80;99.90;;;;;;4148852;28;19932;-63
2022/08/16 01:21:04;;;;;;;;;;;16.80;99.90;;;;;;4148746;28;19932;-65
2022/08/16 01:23:12;;;;;;;;;;;16.80;99.90;;;;;;4148705;28;19976;-64
2022/08/16 01:25:17;;;;;;;;;;;16.80;99.90;;;;;;4148971;28;19929;-65
2022/08/16 01:27:21;;;;;;;;;;;16.80;99.90;;;;;;4148779;28;19921;-65
2022/08/16 01:29:26;;;;;;;;;;;16.80;99.90;;;;;;4148865;28;19921;-65
2022/08/16 01:31:48;;;;;;;;;;;16.80;99.90;;;;;;4131161;28;19921;-65
2022/08/16 01:33:50;;;;;;;;;;;16.60;99.90;;;;;;4148909;28;19921;-65
2022/08/16 01:35:57;;;;;;;;;;;16.60;99.90;;;;;;4147977;28;19929;-65
2022/08/16 01:38:13;;;;;;;;;;;16.40;99.90;;;;;;4148512;28;19965;-64
2022/08/16 01:40:22;;;;;;;;;;;16.30;99.90;;;;;;4132502;28;20298;-66
2022/08/16 01:42:24;;;;;;;;;;;16.40;99.90;;;;;;4142120;28;19925;-65
2022/08/16 01:44:26;;;;;;;;;;;16.40;99.90;;;;;;4148611;28;19925;-65
2022/08/16 01:46:43;;;;;;;;;;;16.50;99.90;;;;;;4148757;28;19928;-65
2022/08/16 01:48:45;;;;;;;;;;;16.50;99.90;;;;;;4148576;28;19921;-66
2022/08/16 01:50:48;;;;;;;;;;;16.50;99.90;;;;;;4148303;28;19922;-65
2022/08/16 01:53:10;;;;;;;;;;;16.40;99.90;;;;;;4154139;28;20395;-65
2022/08/16 01:55:12;;;;;;;;;;;16.40;99.90;;;;;;4131035;28;19929;-64
2022/08/16 01:57:15;;;;;;;;;;;16.50;99.90;;;;;;4148635;28;19927;-65
2022/08/16 01:59:17;;;;;;;;;;;16.40;99.90;;;;;;4148193;28;19928;-65
2022/08/16 02:01:19;;;;;;;;;;;16.40;99.90;;;;;;4148296;28;19926;-65
2022/08/16 02:03:21;;;;;;;;;;;16.30;99.90;;;;;;4148119;28;19921;-66
2022/08/16 02:05:25;;;;;;;;;;;16.40;99.90;;;;;;4148260;28;19952;-66
2022/08/16 02:07:31;;;;;;;;;;;16.30;99.90;;;;;;4147964;28;19925;-65
2022/08/16 02:09:36;;;;;;;;;;;16.30;99.90;;;;;;4148240;28;19956;-64
2022/08/16 02:11:39;;;;;;;;;;;16.20;99.90;;;;;;4147934;28;20377;-66
2022/08/16 02:13:48;;;;;;;;;;;16.10;99.90;;;;;;4148178;28;19922;-65
2022/08/16 02:15:51;;;;;;;;;;;16.00;99.90;;;;;;4148241;28;20385;-66
2022/08/16 02:17:55;;;;;;;;;;;15.90;99.90;;;;;;4147675;28;20008;-65
2022/08/16 02:19:57;;;;;;;;;;;16.00;99.90;;;;;;4147971;28;19988;-66
2022/08/16 02:22:02;;;;;;;;;;;15.90;99.90;;;;;;4131190;28;19976;-66
2022/08/16 02:24:10;;;;;;;;;;;15.90;99.90;;;;;;4147754;28;20405;-66
2022/08/16 02:26:31;;;;;;;;;;;15.90;99.90;;;;;;4114068;28;20390;-65
2022/08/16 02:28:36;;;;;;;;;;;15.90;99.90;;;;;;4131559;28;19945;-65
2022/08/16 02:30:38;;;;;;;;;;;15.90;99.90;;;;;;4127195;28;19983;-64
2022/08/16 02:32:45;;;;;;;;;;;15.90;99.90;;;;;;4147913;28;19921;-65
2022/08/16 02:34:51;;;;;;;;;;;16.00;99.90;;;;;;4147706;28;19991;-65
2022/08/16 02:36:53;;;;;;;;;;;15.90;99.90;;;;;;4147071;28;20388;-66
2022/08/16 02:38:54;;;;;;;;;;;15.90;99.90;;;;;;4147522;28;20575;-66
2022/08/16 02:40:57;;;;;;;;;;;15.90;99.90;;;;;;4147825;28;20400;-65
2022/08/16 02:42:59;;;;;;;;;;;15.90;99.90;;;;;;4147954;28;19925;-65
2022/08/16 02:45:01;;;;;;;;;;;15.90;99.90;;;;;;4147551;28;20428;-65
2022/08/16 02:47:03;;;;;;;;;;;15.80;99.90;;;;;;4147647;28;19928;-65
2022/08/16 02:49:05;;;;;;;;;;;15.70;99.90;;;;;;4147512;28;19922;-65
2022/08/16 02:51:08;;;;;;;;;;;15.70;99.90;;;;;;4147502;28;19928;-66
2022/08/16 02:53:12;;;;;;;;;;;15.70;99.90;;;;;;4147478;28;20393;-64
2022/08/16 02:55:14;;;;;;;;;;;15.70;99.90;;;;;;4147498;28;20011;-66
2022/08/16 02:57:16;;;;;;;;;;;15.60;99.90;;;;;;4148031;28;19928;-65
2022/08/16 02:59:18;;;;;;;;;;;15.50;99.90;;;;;;4147425;28;20472;-66
2022/08/16 03:01:22;;;;;;;;;;;15.60;99.90;;;;;;4147377;28;19991;-65
2022/08/16 03:03:25;;;;;;;;;;;15.50;99.90;;;;;;4147569;28;19976;-65
2022/08/16 03:05:27;;;;;;;;;;;15.60;99.90;;;;;;4147261;28;20389;-65
2022/08/16 03:07:31;;;;;;;;;;;15.60;99.90;;;;;;4130191;28;19926;-65
2022/08/16 03:09:38;;;;;;;;;;;15.60;99.90;;;;;;4147715;28;19979;-65
2022/08/16 03:11:40;;;;;;;;;;;15.60;99.90;;;;;;4147335;28;19925;-65
2022/08/16 03:13:46;;;;;;;;;;;15.60;99.90;;;;;;4147327;28;20421;-66
2022/08/16 03:15:48;;;;;;;;;;;15.60;99.90;;;;;;4147438;28;19932;-65
2022/08/16 03:17:50;;;;;;;;;;;15.70;99.90;;;;;;4147215;28;19928;-65
2022/08/16 03:19:54;;;;;;;;;;;15.70;99.90;;;;;;4147289;28;20381;-65
2022/08/16 03:22:03;;;;;;;;;;;15.70;99.90;;;;;;4131163;28;19977;-64
2022/08/16 03:24:05;;;;;;;;;;;15.60;99.90;;;;;;4137958;28;20361;-64
2022/08/16 03:26:27;;;;;;;;;;;15.60;99.90;;;;;;4147524;28;19936;-65
2022/08/16 03:28:30;;;;;;;;;;;15.70;99.90;;;;;;4147494;28;19921;-64
2022/08/16 03:30:32;;;;;;;;;;;15.80;99.90;;;;;;4150596;28;19925;-64
2022/08/16 03:32:34;;;;;;;;;;;15.70;99.90;;;;;;4150663;28;20001;-64
2022/08/16 03:34:36;;;;;;;;;;;15.60;99.90;;;;;;4150659;28;20365;-65
2022/08/16 03:36:38;;;;;;;;;;;15.60;99.90;;;;;;4149829;28;19947;-65
2022/08/16 03:38:40;;;;;;;;;;;15.60;99.90;;;;;;4150862;28;19961;-64
2022/08/16 03:40:42;;;;;;;;;;;15.60;99.90;;;;;;4150374;28;20340;-65
2022/08/16 03:42:44;;;;;;;;;;;15.60;99.90;;;;;;4150535;28;19921;-65
2022/08/16 03:45:06;;;;;;;;;;;15.60;99.90;;;;;;4155967;28;19922;-62
2022/08/16 03:47:08;;;;;;;;;;;15.60;99.90;;;;;;4150170;28;19992;-65
2022/08/16 03:49:11;;;;;;;;;;;15.50;99.90;;;;;;4150308;28;19922;-65
2022/08/16 03:51:13;;;;;;;;;;;15.50;99.90;;;;;;4150151;28;19972;-65
2022/08/16 03:53:15;;;;;;;;;;;15.60;99.90;;;;;;4150038;28;20438;-65
2022/08/16 03:55:17;;;;;;;;;;;15.60;99.90;;;;;;4150260;28;20385;-64
2022/08/16 03:57:19;;;;;;;;;;;15.60;99.90;;;;;;4150600;28;20016;-65
2022/08/16 03:59:21;;;;;;;;;;;15.60;99.90;;;;;;4150370;28;19928;-64
2022/08/16 04:01:25;;;;;;;;;;;15.60;99.90;;;;;;4150214;28;20375;-64
2022/08/16 04:03:30;;;;;;;;;;;15.60;99.90;;;;;;4150163;28;19954;-65
2022/08/16 04:05:34;;;;;;;;;;;15.50;99.90;;;;;;4150078;28;19924;-65
2022/08/16 04:07:36;;;;;;;;;;;15.50;99.90;;;;;;4150021;28;20016;-64
2022/08/16 04:09:38;;;;;;;;;;;15.50;99.90;;;;;;4132635;28;19972;-65
2022/08/16 04:11:40;;;;;;;;;;;15.50;99.90;;;;;;4149915;28;19969;-65
2022/08/16 04:13:42;;;;;;;;;;;15.50;99.90;;;;;;4149666;28;19922;-63
2022/08/16 04:16:02;;;;;;;;;;;15.50;99.90;;;;;;4150033;28;20351;-64
2022/08/16 04:18:05;;;;;;;;;;;15.50;99.90;;;;;;4149372;28;20016;-65
2022/08/16 04:20:08;;;;;;;;;;;15.50;99.90;;;;;;4148287;28;19926;-65
2022/08/16 04:22:31;;;;;;;;;;;15.40;99.90;;;;;;4151019;28;19929;-66
2022/08/16 04:24:35;;;;;;;;;;;15.40;99.90;;;;;;4157317;28;20305;-63
2022/08/16 04:26:37;;;;;;;;;;;15.50;99.90;;;;;;4148330;28;19952;-63
2022/08/16 04:28:39;;;;;;;;;;;15.60;99.90;;;;;;4148217;28;19961;-65
2022/08/16 04:30:57;;;;;;;;;;;15.50;99.90;;;;;;4147973;28;20341;-66
2022/08/16 04:32:59;;;;;;;;;;;15.60;99.90;;;;;;4148539;28;19925;-64
2022/08/16 04:35:02;;;;;;;;;;;15.50;99.90;;;;;;4130961;28;19922;-65
2022/08/16 04:37:09;;;;;;;;;;;15.30;99.90;;;;;;4131084;28;19934;-62
2022/08/16 04:39:11;;;;;;;;;;;15.40;99.90;;;;;;4148388;28;20460;-66
2022/08/16 04:41:12;;;;;;;;;;;15.50;99.90;;;;;;4151152;28;19931;-65
2022/08/16 04:43:14;;;;;;;;;;;15.50;99.90;;;;;;4148190;28;19928;-66
2022/08/16 04:45:18;;;;;;;;;;;15.40;99.90;;;;;;4148141;28;19925;-63
2022/08/16 04:47:37;;;;;;;;;;;15.30;99.90;;;;;;4147918;28;19930;-64
2022/08/16 04:49:40;;;;;;;;;;;15.30;99.90;;;;;;4150491;28;20011;-65
2022/08/16 04:51:46;;;;;;;;;;;15.40;99.90;;;;;;4164231;28;19921;-66
2022/08/16 04:53:54;;;;;;;;;;;15.40;99.90;;;;;;4153289;28;19922;-65
2022/08/16 04:55:56;;;;;;;;;;;15.40;99.90;;;;;;4147985;28;19956;-64
2022/08/16 04:57:58;;;;;;;;;;;15.30;99.90;;;;;;4148210;28;19925;-65
2022/08/16 05:00:00;;;;;;;;;;;15.30;99.90;;;;;;4148054;28;19922;-61
2022/08/16 05:02:22;;;;;;;;;;;15.30;99.90;;;;;;4152986;28;19929;-64
2022/08/16 05:04:41;;;;;;;;;;;15.30;99.90;;;;;;4147754;28;19921;-65
2022/08/16 05:06:43;;;;;;;;;;;15.40;99.90;;;;;;4147727;28;20305;-64
2022/08/16 05:08:46;;;;;;;;;;;15.40;99.90;;;;;;4147642;28;20420;-65
2022/08/16 05:10:49;;;;;;;;;;;15.30;99.90;;;;;;4150829;28;19982;-64
2022/08/16 05:12:51;;;;;;;;;;;15.30;99.90;;;;;;4166019;28;19921;-65
2022/08/16 05:14:53;;;;;;;;;;;15.30;99.90;;;;;;4163527;28;19925;-65
2022/08/16 05:17:02;;;;;;;;;;;15.20;99.90;;;;;;4147540;28;19932;-64
2022/08/16 05:19:05;;;;;;;;;;;15.20;99.90;;;;;;4147363;28;19928;-65
2022/08/16 05:21:12;;;;;;;;;;;15.20;99.90;;;;;;4147676;28;19921;-61
2022/08/16 05:23:16;;;;;;;;;;;15.30;99.90;;;;;;4147659;28;19921;-64
2022/08/16 05:25:18;;;;;;;;;;;15.30;99.90;;;;;;4147255;28;19969;-65
2022/08/16 05:27:20;;;;;;;;;;;15.30;99.90;;;;;;4147170;28;19947;-63
2022/08/16 05:29:22;;;;;;;;;;;15.40;99.90;;;;;;4147258;28;19922;-61
2022/08/16 05:31:26;;;;;;;;;;;15.40;99.90;;;;;;4147301;28;19925;-61
2022/08/16 05:33:30;;;;;;;;;;;15.50;99.90;;;;;;4147696;28;19921;-60
2022/08/16 05:35:32;;;;;;;;;;;15.60;99.90;;;;;;4147900;28;20383;-61
2022/08/16 05:37:34;;;;;;;;;;;15.60;99.90;;;;;;4163515;28;19921;-61
2022/08/16 05:39:40;;;;;;;;;;;15.70;99.90;;;;;;4163699;28;19925;-60
2022/08/16 05:41:42;;;;;;;;;;;15.80;99.90;;;;;;4152926;28;19925;-61
2022/08/16 05:43:46;;;;;;;;;;;15.90;99.90;;;;;;4153852;28;19974;-60
2022/08/16 05:45:49;;;;;;;;;;;16.00;99.90;;;;;;4163839;28;19921;-60
2022/08/16 05:47:51;;;;;;;;;;;16.10;99.90;;;;;;4154324;28;19921;-61
2022/08/16 05:50:00;;;;;;;;;;;16.20;99.90;;;;;;4147218;28;19922;-60
2022/08/16 05:52:03;;;;;;;;;;;16.30;99.90;;;;;;4146347;28;20008;-61
2022/08/16 05:54:05;;;;;;;;;;;16.50;99.90;;;;;;4146784;28;20336;-61
2022/08/16 05:56:07;;;;;;;;;;;16.60;99.90;;;;;;4147349;28;19925;-60
2022/08/16 05:58:09;;;;;;;;;;;16.70;99.90;;;;;;4146474;28;19921;-61
2022/08/16 06:00:31;;;;;;;;;;;16.60;99.90;;;;;;4129468;28;19928;-60
2022/08/16 06:02:33;;;;;;;;;;;16.80;99.90;;;;;;4147203;28;20393;-61
2022/08/16 06:04:35;;;;;;;;;;;17.00;99.90;;;;;;4146919;28;19925;-60
2022/08/16 06:06:39;;;;;;;;;;;17.00;99.90;;;;;;4146810;28;19921;-60
2022/08/16 06:08:41;;;;;;;;;;;16.90;99.90;;;;;;4146853;28;20012;-61
2022/08/16 06:10:47;;;;;;;;;;;17.00;99.90;;;;;;4146734;28;19921;-61
2022/08/16 06:13:06;;;;;;;;;;;17.00;99.90;;;;;;4146548;28;20582;-61
2022/08/16 06:15:10;;;;;;;;;;;17.10;99.90;;;;;;4146609;28;19975;-61
2022/08/16 06:17:15;;;;;;;;;;;17.20;99.90;;;;;;4146441;28;19925;-61
2022/08/16 06:19:17;;;;;;;;;;;17.20;99.90;;;;;;4146704;28;19960;-61
2022/08/16 06:21:19;;;;;;;;;;;17.30;99.90;;;;;;4146492;28;20360;-61
2022/08/16 06:23:25;;;;;;;;;;;17.40;99.90;;;;;;4146656;28;19929;-61
2022/08/16 06:25:27;;;;;;;;;;;17.50;99.90;;;;;;4146149;28;19925;-61
2022/08/16 06:27:38;;;;;;;;;;;17.60;99.90;;;;;;4146342;28;19925;-60
2022/08/16 06:29:43;;;;;;;;;;;18.00;99.90;;;;;;4146681;28;20373;-61
2022/08/16 06:31:45;;;;;;;;;;;18.20;99.90;;;;;;4146243;28;20312;-61
2022/08/16 06:33:49;;;;;;;;;;;18.30;99.90;;;;;;4146263;28;20377;-61
2022/08/16 06:35:53;;;;;;;;;;;18.50;99.90;;;;;;4144804;28;19925;-62
2022/08/16 06:37:56;;;;;;;;;;;18.60;99.90;;;;;;4146294;28;19925;-62
2022/08/16 06:39:58;;;;;;;;;;;18.90;99.90;;;;;;4128782;28;19977;-61
2022/08/16 06:42:00;;;;;;;;;;;19.10;99.90;;;;;;4151783;28;19926;-61
2022/08/16 06:44:02;;;;;;;;;;;19.20;99.90;;;;;;4146751;28;19925;-61
2022/08/16 06:46:05;;;;;;;;;;;19.40;99.90;;;;;;4145925;28;19926;-61
2022/08/16 06:48:07;;;;;;;;;;;19.60;99.90;;;;;;4146064;28;19925;-61
2022/08/16 06:50:10;;;;;;;;;;;19.70;99.90;;;;;;4146060;28;19921;-61
2022/08/16 06:52:12;;;;;;;;;;;19.90;99.90;;;;;;4145980;28;19921;-61
2022/08/16 06:54:34;;;;;;;;;;;20.00;99.90;;;;;;4151625;28;20353;-61
2022/08/16 06:56:36;;;;;;;;;;;20.30;99.90;;;;;;4128644;28;19929;-61
2022/08/16 06:58:38;;;;;;;;;;;20.40;99.90;;;;;;4145931;28;19987;-61
2022/08/16 07:00:40;;;;;;;;;;;20.60;99.90;;;;;;4146106;28;20359;-61
2022/08/16 07:02:44;;;;;;;;;;;20.80;99.90;;;;;;4145558;28;19995;-61
2022/08/16 07:04:52;;;;;;;;;;;20.80;99.90;;;;;;4145731;28;20451;-62
2022/08/16 07:06:54;;;;;;;;;;;20.90;99.90;;;;;;4128037;28;20372;-62
2022/08/16 07:08:56;;;;;;;;;;;21.10;99.90;;;;;;4146168;28;19931;-61
2022/08/16 07:10:58;;;;;;;;;;;21.10;99.90;;;;;;4145665;28;20438;-62
2022/08/16 07:13:00;;;;;;;;;;;21.30;99.90;;;;;;4145755;28;19931;-61
2022/08/16 07:15:05;;;;;;;;;;;21.50;99.90;;;;;;4145984;28;19983;-62
2022/08/16 07:17:09;;;;;;;;;;;21.70;99.90;;;;;;4145917;28;19997;-61
2022/08/16 07:19:12;;;;;;;;;;;21.80;99.90;;;;;;4145957;28;20373;-62
2022/08/16 07:21:14;;;;;;;;;;;21.80;99.90;;;;;;4146103;28;20025;-61
2022/08/16 07:23:16;;;;;;;;;;;21.80;99.90;;;;;;4145697;28;19953;-62
2022/08/16 07:25:18;;;;;;;;;;;21.80;99.90;;;;;;4145945;28;19928;-62
2022/08/16 07:27:20;;;;;;;;;;;22.10;99.90;;;;;;4145665;28;19938;-62
2022/08/16 07:29:22;;;;;;;;;;;22.30;99.90;;;;;;4145762;28;19925;-62
2022/08/16 07:31:24;;;;;;;;;;;22.40;99.90;;;;;;4128597;28;19926;-62
2022/08/16 07:33:26;;;;;;;;;;;22.60;99.90;;;;;;4145483;28;20301;-62
2022/08/16 07:35:48;;;;;;;;;;;22.60;99.90;;;;;;4132174;28;19921;-62
2022/08/16 07:37:50;;;;;;;;;;;22.80;99.90;;;;;;4129545;28;19930;-62
2022/08/16 07:39:52;;;;;;;;;;;23.10;99.90;;;;;;4141632;28;20003;-62
2022/08/16 07:41:55;;;;;;;;;;;23.20;99.90;;;;;;4145539;28;20420;-62
2022/08/16 07:43:57;;;;;;;;;;;23.20;99.90;;;;;;4128250;28;20341;-62
2022/08/16 07:45:59;;;;;;;;;;;23.40;99.90;;;;;;4145765;28;19921;-62
2022/08/16 07:48:02;;;;;;;;;;;23.50;99.90;;;;;;4145453;28;20443;-62
2022/08/16 07:50:13;;;;;;;;;;;23.60;99.90;;;;;;4145373;28;19960;-62
2022/08/16 07:52:34;;;;;;;;;;;23.90;99.90;;;;;;4139910;28;20020;-62
2022/08/16 07:54:49;;;;;;;;;;;24.40;99.90;;;;;;4145266;28;19971;-63
2022/08/16 07:56:54;;;;;;;;;;;24.40;99.90;;;;;;4145649;28;20389;-63
2022/08/16 07:58:56;;;;;;;;;;;24.50;99.90;;;;;;4145370;28;19925;-62
2022/08/16 08:01:00;;;;;;;;;;;24.50;99.90;;;;;;4145916;28;19921;-63
2022/08/16 08:03:02;;;;;;;;;;;24.70;99.90;;;;;;4145687;28;19921;-63
2022/08/16 08:05:05;;;;;;;;;;;25.00;99.90;;;;;;4146039;28;19929;-63
2022/08/16 08:07:07;;;;;;;;;;;25.10;99.90;;;;;;4145567;28;19929;-62
2022/08/16 08:09:09;;;;;;;;;;;25.10;99.90;;;;;;4145572;28;19925;-62
2022/08/16 08:11:12;;;;;;;;;;;25.20;99.90;;;;;;4145531;28;19925;-62
2022/08/16 08:13:15;;;;;;;;;;;25.30;99.90;;;;;;4127832;28;19930;-62
2022/08/16 08:15:17;;;;;;;;;;;25.40;99.90;;;;;;4138715;28;20381;-63
2022/08/16 08:17:28;;;;;;;;;;;25.50;99.90;;;;;;4148404;28;20020;-62
2022/08/16 08:19:44;;;;;;;;;;;25.90;99.90;;;;;;4148458;28;19952;-62
2022/08/16 08:21:46;;;;;;;;;;;26.10;99.90;;;;;;4148630;28;19977;-63
2022/08/16 08:24:01;;;;;;;;;;;26.20;99.90;;;;;;4148504;28;20230;-63
2022/08/16 08:26:03;;;;;;;;;;;26.00;99.90;;;;;;4148537;28;19944;-62
2022/08/16 08:28:10;;;;;;;;;;;26.20;99.90;;;;;;4148159;28;19921;-62
2022/08/16 08:30:13;;;;;;;;;;;26.20;99.90;;;;;;4148299;28;19975;-62
2022/08/16 08:32:35;;;;;;;;;;;26.10;99.90;;;;;;4151452;28;19921;-63
2022/08/16 08:34:58;;;;;;;;;;;26.40;99.90;;;;;;4137491;28;19979;-63
2022/08/16 08:37:01;;;;;;;;;;;26.50;99.90;;;;;;4144332;28;20057;-63
2022/08/16 08:39:04;;;;;;;;;;;27.00;99.90;;;;;;4148196;28;19921;-63
2022/08/16 08:41:14;;;;;;;;;;;27.40;99.90;;;;;;4148562;28;19971;-63
2022/08/16 08:43:16;;;;;;;;;;;27.60;99.90;;;;;;4147751;28;20333;-63
2022/08/16 08:45:19;;;;;;;;;;;27.50;99.90;;;;;;4147988;28;19922;-63
2022/08/16 08:47:43;;;;;;;;;;;27.40;99.90;;;;;;4137016;28;20317;-63
2022/08/16 08:49:45;;;;;;;;;;;27.60;99.90;;;;;;4141036;28;19925;-63
2022/08/16 08:51:57;;;;;;;;;;;27.80;99.90;;;;;;4148022;28;19929;-63
2022/08/16 08:53:59;;;;;;;;;;;28.10;99.90;;;;;;4148190;28;19964;-63
2022/08/16 08:56:02;;;;;;;;;;;28.20;99.90;;;;;;4148211;28;20427;-62
2022/08/16 08:58:24;;;;;;;;;;;28.10;99.90;;;;;;4153425;28;19932;-63
2022/08/16 09:00:27;;;;;;;;;;;28.10;99.90;;;;;;4147977;28;19976;-63
2022/08/16 09:02:30;;;;;;;;;;;28.30;99.90;;;;;;4130265;28;20405;-63
2022/08/16 09:04:32;;;;;;;;;;;28.50;99.90;;;;;;4147769;28;19925;-63
2022/08/16 09:06:34;;;;;;;;;;;28.40;99.90;;;;;;4147976;28;19922;-63
2022/08/16 09:08:36;;;;;;;;;;;28.30;99.90;;;;;;4147659;28;19921;-63
2022/08/16 09:10:38;;;;;;;;;;;28.50;99.90;;;;;;4147618;28;19922;-63
2022/08/16 09:12:41;;;;;;;;;;;28.60;99.90;;;;;;4147719;28;19925;-63
2022/08/16 09:14:47;;;;;;;;;;;28.70;99.90;;;;;;4147622;28;20007;-63
2022/08/16 09:16:52;;;;;;;;;;;28.70;99.90;;;;;;4145980;28;19969;-63
2022/08/16 09:19:04;;;;;;;;;;;28.00;99.90;;;;;;4142011;28;20288;-63
2022/08/16 09:21:12;;;;;;;;;;;27.40;99.90;;;;;;4141312;28;19929;-62
2022/08/16 09:23:13;;;;;;;;;;;27.90;99.90;;;;;;4146112;28;19932;-62
2022/08/16 09:25:16;;;;;;;;;;;27.90;99.90;;;;;;4139660;28;19977;-63
2022/08/16 09:27:21;;;;;;;;;;;28.30;99.90;;;;;;4134670;28;19931;-63
2022/08/16 09:29:24;;;;;;;;;;;28.10;99.90;;;;;;4150442;28;19929;-62
2022/08/16 09:31:46;;;;;;;;;;;28.60;99.90;;;;;;4144926;28;20020;-62
2022/08/16 09:33:48;;;;;;;;;;;29.10;99.90;;;;;;4141236;28;19991;-62
2022/08/16 09:35:52;;;;;;;;;;;29.00;99.90;;;;;;4139167;28;20300;-63
2022/08/16 09:37:56;;;;;;;;;;;29.20;99.90;;;;;;4141927;28;19964;-63
2022/08/16 09:40:03;;;;;;;;;;;29.50;99.90;;;;;;4139716;28;19928;-62
2022/08/16 09:42:05;;;;;;;;;;;29.50;99.90;;;;;;4147640;28;20289;-63
2022/08/16 09:44:07;;;;;;;;;;;29.50;99.90;;;;;;4146693;28;19928;-63
2022/08/16 09:46:30;;;;;;;;;;;29.50;99.90;;;;;;4150127;28;19924;-63
2022/08/16 09:48:46;;;;;;;;;;;29.60;99.90;;;;;;4162810;28;19921;-63
2022/08/16 09:50:51;;;;;;;;;;;29.50;99.90;;;;;;4158383;28;20012;-63
2022/08/16 09:52:53;;;;;;;;;;;29.40;99.00;;;;;;4161601;28;19971;-62
2022/08/16 09:54:55;;;;;;;;;;;29.40;99.80;;;;;;4147476;28;19957;-62
2022/08/16 09:56:57;;;;;;;;;;;29.20;99.90;;;;;;4161968;28;20304;-63
2022/08/16 09:59:00;;;;;;;;;;;29.00;99.90;;;;;;4163179;28;19925;-64
2022/08/16 10:01:06;;;;;;;;;;;29.20;99.90;;;;;;4163263;28;19920;-63
2022/08/16 10:03:09;;;;;;;;;;;29.50;99.90;;;;;;4161930;28;19975;-61
2022/08/16 10:05:11;;;;;;;;;;;28.80;99.90;;;;;;4154408;28;19960;-63
2022/08/16 10:07:13;;;;;;;;;;;28.50;99.60;;;;;;4179847;28;19936;-63
2022/08/16 10:09:17;;;;;;;;;;;28.50;99.70;;;;;;4175485;28;19921;-63
2022/08/16 10:13:51;;;;;;;;;;;29.10;99.90;;;;;;4159372;28;19926;-63
2022/08/16 10:15:58;;;;;;;;;;;29.40;99.30;;;;;;4152679;28;19925;-63
2022/08/16 10:18:01;;;;;;;;;;;29.20;99.30;;;;;;4148498;28;19932;-63
2022/08/16 10:20:04;;;;;;;;;;;29.90;99.90;;;;;;4154009;28;20404;-63
2022/08/16 10:22:06;;;;;;;;;;;30.00;97.80;;;;;;4160874;28;19928;-63
2022/08/16 10:24:09;;;;;;;;;;;29.60;98.10;;;;;;4161941;28;19975;-63
2022/08/16 10:26:11;;;;;;;;;;;29.80;98.30;;;;;;4162647;28;20381;-63
2022/08/16 10:28:33;;;;;;;;;;;30.10;98.80;;;;;;4153639;28;20305;-63
2022/08/16 10:30:42;;;;;;;;;;;29.70;97.70;;;;;;4162734;28;19921;-62
2022/08/16 10:32:44;;;;;;;;;;;29.90;98.00;;;;;;4162341;28;19929;-63
2022/08/16 10:34:46;;;;;;;;;;;30.00;99.90;;;;;;4162750;28;20385;-63
2022/08/16 10:36:48;;;;;;;;;;;30.10;98.30;;;;;;4143513;28;19922;-63
2022/08/16 10:38:55;;;;;;;;;;;30.50;98.80;;;;;;4146145;28;19953;-67
2022/08/16 10:40:57;;;;;;;;;;;29.80;97.20;;;;;;4146187;28;19926;-66
2022/08/16 10:42:59;;;;;;;;;;;29.90;99.60;;;;;;4149851;28;19929;-66
2022/08/16 10:45:02;;;;;;;;;;;29.60;99.10;;;;;;4146543;28;20275;-66
2022/08/16 10:47:04;;;;;;;;;;;29.70;98.40;;;;;;4155114;28;20353;-62
2022/08/16 10:49:07;;;;;;;;;;;29.90;98.30;;;;;;4158278;28;19993;-66
2022/08/16 10:51:09;;;;;;;;;;;30.00;96.00;;;;;;4147603;28;19959;-66
2022/08/16 10:53:11;;;;;;;;;;;30.00;97.10;;;;;;4162652;28;19975;-65
2022/08/16 10:55:13;;;;;;;;;;;30.40;98.00;;;;;;4160483;28;19967;-64
2022/08/16 10:57:35;;;;;;;;;;;30.00;97.90;;;;;;4156514;28;20000;-63
2022/08/16 10:59:37;;;;;;;;;;;30.00;96.20;;;;;;4143978;28;19929;-65
2022/08/16 11:01:55;;;;;;;;;;;30.40;97.70;;;;;;4158898;28;20389;-65
2022/08/16 11:04:17;;;;;;;;;;;30.80;97.10;;;;;;4145907;28;19925;-66
2022/08/16 11:06:40;;;;;;;;;;;31.10;98.20;;;;;;4145878;28;19960;-66
2022/08/16 11:08:42;;;;;;;;;;;31.20;97.30;;;;;;4146008;28;19921;-66
2022/08/16 11:10:46;;;;;;;;;;;30.80;96.50;;;;;;4145991;28;19960;-65
2022/08/16 11:13:09;;;;;;;;;;;30.20;98.10;;;;;;4152303;28;19928;-65
2022/08/16 11:15:32;;;;;;;;;;;30.80;97.50;;;;;;4152049;28;19941;-66
2022/08/16 11:17:35;;;;;;;;;;;30.50;96.00;;;;;;4145921;28;19928;-65
2022/08/16 11:19:40;;;;;;;;;;;30.90;97.30;;;;;;4145755;28;19929;-65
2022/08/16 11:22:02;;;;;;;;;;;30.80;96.00;;;;;;4158364;28;19925;-65
2022/08/16 11:24:24;;;;;;;;;;;30.90;97.60;;;;;;4156364;28;19929;-65
2022/08/16 11:26:42;;;;;;;;;;;31.20;95.60;;;;;;4156765;28;19921;-65
2022/08/16 11:28:44;;;;;;;;;;;31.20;95.40;;;;;;4166493;28;19972;-66
2022/08/16 11:31:07;;;;;;;;;;;30.70;95.20;;;;;;4169453;28;20008;-66
2022/08/16 11:33:09;;;;;;;;;;;30.70;95.70;;;;;;4161636;28;19943;-64
2022/08/16 11:35:13;;;;;;;;;;;30.90;96.20;;;;;;4157595;28;19925;-64
2022/08/16 11:37:16;;;;;;;;;;;31.10;93.30;;;;;;4160347;28;20376;-64
2022/08/16 11:39:28;;;;;;;;;;;31.00;92.00;;;;;;4178675;28;20312;-66
2022/08/16 11:41:32;;;;;;;;;;;31.60;94.10;;;;;;4163169;28;19931;-65
2022/08/16 11:43:36;;;;;;;;;;;31.20;94.00;;;;;;4155758;28;19936;-66
2022/08/16 11:45:38;;;;;;;;;;;31.30;94.00;;;;;;4145664;28;19921;-66
2022/08/16 11:47:43;;;;;;;;;;;31.20;94.20;;;;;;4145624;28;19921;-66
2022/08/16 11:49:45;;;;;;;;;;;30.90;95.80;;;;;;4146003;28;19925;-65
2022/08/16 11:51:48;;;;;;;;;;;31.20;93.50;;;;;;4154289;28;20352;-65
2022/08/16 11:53:51;;;;;;;;;;;31.60;96.40;;;;;;4148919;28;19921;-64
2022/08/16 11:55:55;;;;;;;;;;;31.60;93.30;;;;;;4148806;28;19980;-64
2022/08/16 11:57:58;;;;;;;;;;;31.60;95.10;;;;;;4148926;28;19961;-66
2022/08/16 12:00:00;;;;;;;;;;;31.90;95.40;;;;;;4125150;28;20475;-66
2022/08/16 12:02:05;;;;;;;;;;;32.20;94.20;;;;;;4164375;28;20405;-65
2022/08/16 12:04:26;;;;;;;;;;;32.70;94.10;;;;;;4154284;28;19927;-65
2022/08/16 12:06:29;;;;;;;;;;;32.00;93.00;;;;;;4148496;28;19927;-64
2022/08/16 12:08:31;;;;;;;;;;;31.50;94.60;;;;;;4148694;28;19929;-64
2022/08/16 12:10:34;;;;;;;;;;;31.70;95.90;;;;;;4154953;28;19924;-65
2022/08/16 12:12:36;;;;;;;;;;;31.30;93.90;;;;;;4165267;28;19986;-65